createdAt,value
2022-12-07T09:19:50.518Z,0.60
2022-12-07T09:22:23.104Z,0.57
2022-12-07T09:24:55.899Z,1.00
2022-12-07T09:27:29.151Z,0.50
2022-12-07T09:30:11.882Z,0.40
2022-12-07T09:32:44.453Z,0.60
2022-12-07T09:35:17.125Z,0.55
2022-12-07T09:37:49.932Z,0.70
2022-12-07T09:40:25.276Z,0.50
2022-12-07T09:42:57.914Z,0.52
2022-12-07T09:45:37.348Z,0.50
2022-12-07T09:48:40.275Z,0.73
2022-12-07T09:51:28.175Z,0.60
2022-12-07T09:54:01.439Z,0.50
2022-12-07T09:56:34.223Z,0.40
2022-12-07T09:59:06.977Z,0.38
2022-12-07T10:01:40.537Z,0.55
2022-12-07T10:04:35.839Z,0.60
2022-12-07T10:07:08.421Z,0.47
2022-12-07T10:09:42.024Z,0.57
2022-12-07T10:12:14.697Z,0.57
2022-12-07T10:15:08.532Z,0.40
2022-12-07T10:17:51.892Z,0.50
2022-12-07T10:20:27.739Z,0.50
2022-12-07T10:23:19.234Z,0.57
2022-12-07T10:28:42.655Z,0.60
2022-12-07T10:31:24.287Z,0.47
2022-12-07T10:34:00.701Z,0.50
2022-12-07T10:36:33.097Z,0.52
2022-12-07T10:39:15.444Z,0.55
2022-12-07T10:42:04.929Z,0.63
2022-12-07T10:44:37.456Z,0.50
2022-12-07T10:47:28.402Z,0.60
2022-12-07T10:50:51.625Z,0.50
2022-12-07T10:54:12.513Z,0.40
2022-12-07T10:57:12.125Z,0.60
2022-12-07T11:00:13.024Z,0.60
2022-12-07T11:03:00.231Z,0.75
2022-12-07T11:06:02.744Z,0.57
2022-12-07T11:09:10.208Z,0.35
2022-12-07T11:12:08.691Z,0.50
2022-12-07T11:15:18.394Z,0.50
2022-12-07T11:18:40.632Z,0.45
2022-12-07T11:21:48.884Z,0.60
2022-12-07T11:24:36.693Z,0.38
2022-12-07T11:27:45.537Z,0.60
2022-12-07T11:30:24.791Z,0.70
2022-12-07T11:33:47.929Z,0.50
2022-12-07T11:36:45.146Z,0.40
2022-12-07T11:39:23.648Z,0.65
2022-12-07T11:45:10.803Z,0.52
2022-12-07T11:50:56.008Z,0.40
2022-12-07T11:54:22.664Z,0.60
2022-12-07T11:57:05.173Z,0.50
2022-12-07T11:59:48.213Z,0.40
2022-12-07T12:02:33.555Z,0.60
2022-12-07T12:05:19.275Z,0.40
2022-12-07T12:11:47.996Z,0.40
2022-12-07T12:15:22.282Z,0.40
2022-12-07T12:18:18.972Z,0.40
2022-12-07T12:21:01.686Z,0.40
2022-12-07T12:24:01.741Z,0.55
2022-12-07T12:26:39.493Z,0.50
2022-12-07T12:29:33.933Z,0.77
2022-12-07T12:32:17.674Z,0.40
2022-12-07T12:35:27.495Z,0.50
2022-12-07T12:38:49.146Z,0.38
2022-12-07T12:41:37.015Z,0.50
2022-12-07T12:44:29.800Z,0.40
2022-12-07T12:47:05.930Z,0.40
2022-12-07T12:49:44.147Z,0.50
2022-12-07T12:52:25.381Z,0.40
2022-12-07T12:55:12.494Z,0.40
2022-12-07T12:57:45.062Z,0.40
2022-12-07T13:00:23.929Z,0.50
2022-12-07T13:03:00.845Z,0.47
2022-12-07T13:05:39.217Z,0.52
2022-12-07T13:08:30.480Z,0.50
2022-12-07T13:11:35.682Z,0.40
2022-12-07T13:14:41.929Z,0.43
2022-12-07T13:17:43.557Z,0.60
2022-12-07T13:21:08.233Z,0.30
2022-12-07T13:23:46.711Z,0.45
2022-12-07T13:26:30.943Z,0.63
2022-12-07T13:29:18.637Z,0.50
2022-12-07T13:31:58.089Z,0.40
2022-12-07T13:34:40.228Z,0.70
2022-12-07T13:37:36.681Z,0.70
2022-12-07T13:40:23.701Z,0.45
2022-12-07T13:43:06.002Z,0.60
2022-12-07T13:45:59.548Z,0.80
2022-12-07T13:48:44.017Z,0.50
2022-12-07T13:54:02.853Z,0.80
2022-12-07T13:56:37.307Z,0.63
2022-12-07T13:59:23.585Z,0.65
2022-12-07T14:01:56.240Z,0.60
2022-12-07T14:04:38.041Z,0.30
2022-12-07T14:07:22.926Z,0.70
2022-12-07T14:10:06.709Z,0.93
2022-12-07T14:12:39.254Z,0.40
2022-12-07T14:15:24.780Z,0.60
2022-12-07T14:17:59.809Z,0.55
2022-12-07T14:20:41.876Z,0.65
2022-12-07T14:23:27.265Z,0.60
2022-12-07T14:26:15.514Z,0.43
2022-12-07T14:28:48.803Z,0.60
2022-12-07T14:31:30.621Z,0.50
2022-12-07T14:34:03.561Z,0.60
2022-12-07T14:36:36.088Z,0.60
2022-12-07T14:39:13.092Z,0.50
2022-12-07T14:41:52.278Z,0.50
2022-12-07T14:44:28.024Z,0.45
2022-12-07T14:50:05.097Z,0.55
2022-12-07T14:55:39.638Z,0.47
2022-12-07T14:58:17.992Z,0.68
2022-12-07T15:00:50.527Z,0.60
2022-12-07T15:03:23.147Z,0.60
2022-12-07T15:05:55.637Z,0.60
2022-12-07T15:08:28.228Z,0.60
2022-12-07T15:11:00.781Z,0.70
2022-12-07T15:13:52.205Z,0.73
2022-12-07T15:16:24.809Z,0.50
2022-12-07T15:19:26.755Z,0.70
2022-12-07T15:21:50.576Z,0.60
2022-12-07T15:24:24.933Z,0.47
2022-12-07T15:26:57.497Z,0.75
2022-12-07T15:29:30.253Z,0.82
2022-12-07T15:32:03.038Z,0.43
2022-12-07T15:34:39.884Z,0.50
2022-12-07T15:37:13.461Z,0.50
2022-12-07T15:39:45.993Z,0.60
2022-12-07T15:42:18.582Z,0.52
2022-12-07T15:45:06.716Z,0.43
2022-12-07T15:48:19.782Z,0.40
2022-12-07T15:50:36.241Z,0.50
2022-12-07T15:53:08.789Z,0.55
2022-12-07T15:55:41.690Z,0.57
2022-12-07T15:58:14.240Z,0.60
2022-12-07T16:00:47.953Z,0.55
2022-12-07T16:03:20.555Z,0.35
2022-12-07T16:05:54.105Z,0.68
2022-12-07T16:08:30.522Z,0.70
2022-12-07T16:11:07.709Z,0.50
2022-12-07T16:13:40.345Z,0.50
2022-12-07T16:16:16.872Z,0.30
2022-12-07T16:18:51.285Z,0.50
2022-12-07T16:21:25.589Z,0.50
2022-12-07T16:23:59.937Z,0.50
2022-12-07T16:26:32.613Z,0.63
2022-12-07T16:29:05.217Z,0.60
2022-12-07T16:31:37.923Z,0.50
2022-12-07T16:34:10.805Z,0.50
2022-12-07T16:39:36.026Z,0.60
2022-12-07T16:42:08.678Z,0.52
2022-12-07T16:44:42.280Z,0.68
2022-12-07T16:47:15.031Z,0.40
2022-12-07T16:49:48.583Z,0.30
2022-12-07T16:52:22.734Z,0.50
2022-12-07T16:57:27.648Z,0.50
2022-12-07T17:00:00.200Z,0.32
2022-12-07T17:02:32.732Z,0.60
2022-12-07T17:05:05.684Z,0.43
2022-12-07T17:07:39.342Z,0.50
2022-12-07T17:10:12.149Z,0.40
2022-12-07T17:12:44.644Z,0.60
2022-12-07T17:15:17.525Z,0.55
2022-12-07T17:17:58.757Z,0.40
2022-12-07T17:20:31.301Z,0.65
2022-12-07T17:23:03.796Z,0.70
2022-12-07T17:25:36.322Z,0.52
2022-12-07T17:28:08.792Z,0.43
2022-12-07T17:30:41.816Z,0.50
2022-12-07T17:33:14.401Z,0.60
2022-12-07T17:35:46.949Z,0.50
2022-12-07T17:38:19.546Z,0.60
2022-12-07T17:40:52.205Z,0.50
2022-12-07T17:43:24.767Z,0.50
2022-12-07T17:45:57.379Z,0.52
2022-12-07T17:48:29.980Z,0.40
2022-12-07T17:51:22.007Z,0.77
2022-12-07T17:53:54.521Z,0.60
2022-12-07T17:56:28.864Z,0.52
2022-12-07T17:59:01.917Z,0.50
2022-12-07T18:01:35.325Z,0.57
2022-12-07T18:04:08.382Z,0.60
2022-12-07T18:06:41.389Z,0.43
2022-12-07T18:09:13.960Z,0.50
2022-12-07T18:11:46.709Z,0.60
2022-12-07T18:14:19.182Z,0.80
2022-12-07T18:16:51.767Z,0.70
2022-12-07T18:19:24.410Z,0.60
2022-12-07T18:21:56.901Z,0.60
2022-12-07T18:24:36.237Z,0.40
2022-12-07T18:27:09.481Z,0.70
2022-12-07T18:29:42.113Z,0.60
2022-12-07T18:32:14.687Z,0.95
2022-12-07T18:34:47.195Z,0.70
2022-12-07T18:37:19.681Z,0.90
2022-12-07T18:39:52.285Z,0.70
2022-12-07T18:42:25.111Z,0.68
2022-12-07T18:44:57.676Z,0.52
2022-12-07T18:47:30.220Z,0.60
2022-12-07T18:50:03.148Z,0.57
2022-12-07T18:52:35.690Z,0.63
2022-12-07T18:55:08.589Z,0.60
2022-12-07T18:57:41.120Z,0.68
2022-12-07T19:00:14.610Z,0.60
2022-12-07T19:02:47.499Z,0.68
2022-12-07T19:05:20.876Z,0.68
2022-12-07T19:07:53.461Z,0.50
2022-12-07T19:10:26.049Z,0.60
2022-12-07T19:12:58.736Z,0.63
2022-12-07T19:15:32.133Z,0.80
2022-12-07T19:18:04.685Z,0.68
2022-12-07T19:20:37.253Z,0.70
2022-12-07T19:23:09.775Z,0.70
2022-12-07T19:25:42.529Z,0.95
2022-12-07T19:28:15.010Z,0.65
2022-12-07T19:30:47.792Z,0.70
2022-12-07T19:33:20.309Z,0.65
2022-12-07T19:35:52.769Z,0.60
2022-12-07T19:38:25.496Z,0.80
2022-12-07T19:41:32.724Z,0.60
2022-12-07T19:44:11.270Z,0.75
2022-12-07T19:46:46.814Z,0.90
2022-12-07T19:49:21.392Z,0.60
2022-12-07T19:52:00.603Z,0.70
2022-12-07T19:54:34.285Z,0.70
2022-12-07T19:57:09.371Z,0.70
2022-12-07T19:59:43.151Z,0.70
2022-12-07T20:02:16.537Z,0.70
2022-12-07T20:04:49.260Z,0.70
2022-12-07T20:07:21.769Z,0.63
2022-12-07T20:09:54.351Z,0.77
2022-12-07T20:12:45.656Z,0.80
2022-12-07T20:15:18.464Z,0.70
2022-12-07T20:17:50.968Z,0.80
2022-12-07T20:20:23.477Z,0.77
2022-12-07T20:22:55.956Z,0.90
2022-12-07T20:25:28.461Z,1.05
2022-12-07T20:28:00.940Z,1.23
2022-12-07T20:30:33.507Z,0.80
2022-12-07T20:33:06.128Z,0.80
2022-12-07T20:35:38.665Z,0.80
2022-12-07T20:38:12.648Z,0.90
2022-12-07T20:40:50.230Z,0.77
2022-12-07T20:43:22.741Z,0.80
2022-12-07T20:45:56.164Z,1.00
2022-12-07T20:48:28.812Z,0.70
2022-12-07T20:51:06.004Z,0.88
2022-12-07T20:53:38.508Z,0.90
2022-12-07T20:56:25.104Z,0.77
2022-12-07T20:59:02.754Z,0.70
2022-12-07T21:01:35.563Z,0.85
2022-12-07T21:04:08.461Z,0.80
2022-12-07T21:06:41.828Z,0.80
2022-12-07T21:09:14.396Z,0.80
2022-12-07T21:11:46.882Z,1.00
2022-12-07T21:14:19.790Z,0.73
2022-12-07T21:16:52.286Z,0.95
2022-12-07T21:19:24.916Z,0.90
2022-12-07T21:21:57.420Z,0.90
2022-12-07T21:24:29.955Z,0.80
2022-12-07T21:27:02.491Z,0.90
2022-12-07T21:29:43.885Z,0.90
2022-12-07T21:32:17.303Z,1.00
2022-12-07T21:34:49.801Z,0.90
2022-12-07T21:37:22.313Z,0.80
2022-12-07T21:39:54.921Z,0.75
2022-12-07T21:42:27.569Z,0.70
2022-12-07T21:45:00.246Z,0.90
2022-12-07T21:47:33.049Z,0.93
2022-12-07T21:50:06.413Z,0.85
2022-12-07T21:52:38.873Z,0.70
2022-12-07T21:55:11.405Z,0.82
2022-12-07T21:57:43.992Z,0.90
2022-12-07T22:00:17.269Z,0.90
2022-12-07T22:02:49.773Z,0.70
2022-12-07T22:05:22.493Z,0.80
2022-12-07T22:07:55.279Z,0.95
2022-12-07T22:10:31.064Z,0.95
2022-12-07T22:13:03.701Z,0.80
2022-12-07T22:15:40.356Z,0.80
2022-12-07T22:18:12.904Z,0.88
2022-12-07T22:20:45.564Z,0.80
2022-12-07T22:23:18.028Z,0.80
2022-12-07T22:25:50.527Z,0.65
2022-12-07T22:28:23.724Z,0.77
2022-12-07T22:31:04.066Z,0.80
2022-12-07T22:33:36.816Z,1.00
2022-12-07T22:36:10.618Z,0.93
2022-12-07T22:38:44.171Z,0.80
2022-12-07T22:41:23.526Z,0.80
2022-12-07T22:43:57.244Z,1.00
2022-12-07T22:46:29.824Z,0.93
2022-12-07T22:49:03.318Z,0.70
2022-12-07T22:51:40.575Z,1.00
2022-12-07T22:54:16.531Z,0.85
2022-12-07T22:56:49.109Z,1.00
2022-12-07T22:59:21.623Z,0.90
2022-12-07T23:01:54.329Z,0.77
2022-12-07T23:04:27.028Z,0.75
2022-12-07T23:06:59.621Z,0.95
2022-12-07T23:09:32.212Z,0.80
2022-12-07T23:12:43.596Z,1.00
2022-12-07T23:15:16.660Z,0.85
2022-12-07T23:17:49.161Z,1.00
2022-12-07T23:20:21.705Z,0.90
2022-12-07T23:22:54.237Z,0.98
2022-12-07T23:25:26.694Z,0.93
2022-12-07T23:27:59.173Z,0.93
2022-12-07T23:30:31.649Z,1.23
2022-12-07T23:33:04.171Z,1.00
2022-12-07T23:35:36.731Z,1.13
2022-12-07T23:38:09.342Z,0.90
2022-12-07T23:40:42.054Z,0.70
2022-12-07T23:43:14.685Z,1.00
2022-12-07T23:45:47.137Z,0.90
2022-12-07T23:48:19.597Z,1.10
2022-12-07T23:50:52.118Z,0.95
2022-12-07T23:53:31.616Z,1.15
2022-12-07T23:56:05.481Z,1.10
2022-12-07T23:58:38.343Z,1.15
